Time;durP1;ratioP1;P1;durP2;ratioP2;P2;SDS_P1;SDS_P2;PMS_P1;PMS_P2;Temp;Humidity;BMP_temperature;BMP_pressure;BME280_temperature;BME280_humidity;BME280_pressure;Samples;Min_cycle;Max_cycle;Signal;HPM_P1;HPM_P2
2022/06/19 00:01:08;;;;;;;12.50;2.80;;;24.40;75.00;;;;;;5032442;28;20029;-67
2022/06/19 00:03:49;;;;;;;9.95;2.25;;;24.30;74.70;;;;;;5032257;28;20494;-67
2022/06/19 00:06:16;;;;;;;9.60;2.13;;;24.20;75.70;;;;;;5021825;28;20033;-65
2022/06/19 00:08:42;;;;;;;10.02;2.25;;;24.20;75.60;;;;;;5027195;28;20025;-70
2022/06/19 00:11:11;;;;;;;13.70;2.08;;;23.90;75.30;;;;;;5036518;28;20029;-69
2022/06/19 00:13:37;;;;;;;14.02;2.67;;;23.90;75.60;;;;;;5053269;28;20389;-70
2022/06/19 00:16:03;;;;;;;9.63;2.25;;;23.70;75.30;;;;;;5053261;28;20465;-66
2022/06/19 00:18:28;;;;;;;9.52;1.88;;;23.60;75.70;;;;;;5034169;28;20025;-69
2022/06/19 00:20:54;;;;;;;5.78;1.73;;;23.70;76.10;;;;;;5032172;28;20025;-71
2022/06/19 00:23:20;;;;;;;9.50;2.10;;;23.70;75.40;;;;;;5031961;28;20021;-71
2022/06/19 00:25:46;;;;;;;6.97;2.00;;;23.40;75.60;;;;;;5038385;28;20028;-71
2022/06/19 00:28:12;;;;;;;10.20;1.90;;;23.60;75.60;;;;;;5032865;28;20497;-69
2022/06/19 00:30:37;;;;;;;8.20;2.25;;;23.90;76.00;;;;;;5033171;28;20049;-72
2022/06/19 00:33:03;;;;;;;7.63;2.13;;;24.00;75.10;;;;;;5033296;28;20410;-72
2022/06/19 00:35:29;;;;;;;8.35;1.88;;;24.00;75.50;;;;;;5033177;28;20034;-72
2022/06/19 00:37:56;;;;;;;11.18;2.28;;;24.00;74.40;;;;;;5033346;28;20026;-71
2022/06/19 00:40:23;;;;;;;10.07;2.13;;;24.10;72.80;;;;;;5033054;28;20025;-71
2022/06/19 00:42:49;;;;;;;10.98;2.03;;;24.10;72.60;;;;;;5033389;28;20036;-72
2022/06/19 00:45:39;;;;;;;12.18;1.67;;;24.00;72.40;;;;;;5032974;28;20029;-71
2022/06/19 00:48:12;;;;;;;7.50;1.80;;;23.50;71.40;;;;;;5028241;28;20385;-71
2022/06/19 00:50:39;;;;;;;6.18;1.75;;;23.50;71.10;;;;;;5015763;28;20037;-70
2022/06/19 00:53:11;;;;;;;8.43;1.63;;;23.60;71.00;;;;;;5010600;28;20049;-72
2022/06/19 00:55:41;;;;;;;7.28;1.42;;;23.40;70.90;;;;;;5012544;28;20109;-69
2022/06/19 00:58:27;;;;;;;7.40;1.40;;;23.60;67.20;;;;;;5012954;28;20020;-68
2022/06/19 01:00:57;;;;;;;9.30;1.90;;;23.70;69.80;;;;;;5013274;28;20100;-68
2022/06/19 01:03:33;;;;;;;4.18;1.02;;;23.50;67.80;;;;;;5013318;28;20025;-69
2022/06/19 01:05:58;;;;;;;5.90;1.55;;;23.60;67.80;;;;;;5013280;28;20025;-69
2022/06/19 01:08:24;;;;;;;8.43;1.35;;;23.30;66.60;;;;;;5013034;28;20077;-67
2022/06/19 01:10:52;;;;;;;8.75;1.75;;;23.20;68.00;;;;;;5013284;28;20037;-71
2022/06/19 01:13:20;;;;;;;10.15;2.25;;;23.20;68.90;;;;;;5012820;28;20050;-71
2022/06/19 01:15:47;;;;;;;13.93;2.00;;;23.10;70.40;;;;;;5013355;28;20487;-72
2022/06/19 01:18:13;;;;;;;7.53;1.73;;;23.20;68.70;;;;;;4995221;28;20475;-71
2022/06/19 01:20:41;;;;;;;9.13;1.83;;;23.10;68.10;;;;;;5013299;28;20036;-70
2022/06/19 01:23:19;;;;;;;12.23;2.05;;;23.30;66.70;;;;;;5014491;28;20026;-68
2022/06/19 01:25:45;;;;;;;9.93;1.75;;;23.30;70.10;;;;;;5017078;28;20467;-71
2022/06/19 01:31:07;;;;;;;11.50;2.05;;;23.70;67.80;;;;;;5017316;28;20088;-71
2022/06/19 01:33:47;;;;;;;14.63;1.75;;;23.80;69.60;;;;;;5016766;28;20018;-72
2022/06/19 01:36:16;;;;;;;7.30;1.27;;;23.50;64.40;;;;;;5016898;28;20042;-66
2022/06/19 01:38:46;;;;;;;10.55;1.85;;;23.50;65.00;;;;;;5016783;28;20025;-71
2022/06/19 01:41:16;;;;;;;7.78;1.83;;;23.20;64.60;;;;;;5016426;28;20065;-71
2022/06/19 01:43:42;;;;;;;6.70;1.63;;;23.40;66.00;;;;;;5016300;28;20394;-71
2022/06/19 01:46:08;;;;;;;9.43;1.58;;;23.40;64.80;;;;;;5016709;28;20559;-72
2022/06/19 01:48:34;;;;;;;8.77;1.85;;;23.40;64.50;;;;;;5016591;28;20025;-71
2022/06/19 01:51:03;;;;;;;7.55;1.80;;;23.20;66.30;;;;;;5016583;28;20029;-72
2022/06/19 01:53:43;;;;;;;9.00;1.67;;;23.10;65.50;;;;;;5016385;28;20018;-72
2022/06/19 01:56:11;;;;;;;6.93;1.25;;;23.20;65.00;;;;;;5016127;28;20045;-71
2022/06/19 01:58:41;;;;;;;8.18;1.90;;;23.20;65.20;;;;;;5016393;28;20026;-72
2022/06/19 02:01:09;;;;;;;8.35;1.30;;;23.10;66.30;;;;;;5016526;28;20116;-72
2022/06/19 02:03:40;;;;;;;8.50;1.48;;;22.80;66.70;;;;;;5016232;28;20022;-71
2022/06/19 02:06:09;;;;;;;10.90;1.63;;;22.80;66.50;;;;;;5016449;28;20109;-71
2022/06/19 02:08:35;;;;;;;12.32;1.58;;;22.60;66.50;;;;;;5016241;28;20467;-72
2022/06/19 02:11:04;;;;;;;12.60;2.13;;;22.60;68.00;;;;;;5016221;28;20030;-72
2022/06/19 02:13:32;;;;;;;9.18;2.05;;;22.30;68.50;;;;;;5016265;28;20033;-70
2022/06/19 02:15:58;;;;;;;6.45;1.33;;;22.60;68.40;;;;;;5016057;28;20048;-69
2022/06/19 02:18:29;;;;;;;9.77;1.77;;;22.60;67.60;;;;;;5015953;28;20022;-71
2022/06/19 02:20:54;;;;;;;13.80;1.65;;;22.80;68.10;;;;;;5015948;28;20025;-72
2022/06/19 02:23:30;;;;;;;9.32;1.60;;;22.90;67.20;;;;;;5015967;28;20022;-72
2022/06/19 02:25:56;;;;;;;6.63;1.73;;;22.60;68.20;;;;;;5015883;28;20053;-72
2022/06/19 02:28:22;;;;;;;10.40;1.70;;;22.50;68.60;;;;;;5015781;28;20026;-72
2022/06/19 02:30:49;;;;;;;8.70;1.17;;;22.50;66.30;;;;;;5016006;28;20029;-71
2022/06/19 02:33:18;;;;;;;11.15;1.85;;;22.20;65.30;;;;;;5015848;28;20104;-72
2022/06/19 02:35:44;;;;;;;10.32;1.55;;;22.20;65.30;;;;;;5016878;28;20046;-70
2022/06/19 02:38:16;;;;;;;14.02;1.77;;;21.90;64.00;;;;;;5015488;28;20037;-71
2022/06/19 02:41:03;;;;;;;11.98;1.67;;;21.90;64.90;;;;;;5014467;28;20029;-70
2022/06/19 02:43:35;;;;;;;11.70;1.38;;;22.00;64.80;;;;;;5014507;28;20137;-72
2022/06/19 02:46:06;;;;;;;8.85;1.20;;;21.80;65.30;;;;;;5015429;28;20022;-72
2022/06/19 02:48:32;;;;;;;8.27;1.33;;;21.80;64.30;;;;;;5015238;28;20022;-70
2022/06/19 02:51:00;;;;;;;6.22;1.05;;;21.90;63.70;;;;;;4998108;28;20109;-71
2022/06/19 02:53:26;;;;;;;8.13;1.65;;;22.00;62.60;;;;;;5015230;28;20029;-70
2022/06/19 02:55:52;;;;;;;8.13;1.20;;;22.00;64.00;;;;;;5015008;28;20084;-72
2022/06/19 02:58:19;;;;;;;7.28;1.00;;;22.20;65.20;;;;;;5015295;28;20030;-67
2022/06/19 03:00:46;;;;;;;14.10;1.77;;;22.20;62.50;;;;;;5015347;28;20026;-70
2022/06/19 03:03:35;;;;;;;5.68;1.10;;;22.30;62.90;;;;;;5015609;28;20096;-72
2022/06/19 03:06:01;;;;;;;10.15;1.17;;;22.00;59.00;;;;;;5015504;28;20116;-71
2022/06/19 03:08:26;;;;;;;9.65;1.13;;;21.40;60.60;;;;;;5015053;28;20061;-70
2022/06/19 03:10:52;;;;;;;8.65;1.40;;;21.60;61.50;;;;;;5014909;28;20076;-69
2022/06/19 03:13:18;;;;;;;13.10;1.83;;;21.50;59.50;;;;;;5015088;28;20033;-67
2022/06/19 03:15:44;;;;;;;7.97;1.00;;;21.10;60.00;;;;;;5014997;28;20542;-70
2022/06/19 03:18:10;;;;;;;7.00;1.30;;;21.20;60.20;;;;;;5014983;28;20113;-68
2022/06/19 03:20:35;;;;;;;10.15;1.17;;;21.00;60.00;;;;;;5014862;28;20057;-71
2022/06/19 03:23:01;;;;;;;19.65;1.42;;;21.00;59.10;;;;;;5014774;28;20072;-71
2022/06/19 03:25:27;;;;;;;10.13;1.40;;;20.90;58.50;;;;;;5014600;28;20033;-69
2022/06/19 03:27:52;;;;;;;5.13;1.30;;;20.90;58.40;;;;;;5014870;28;20416;-72
2022/06/19 03:30:20;;;;;;;10.70;1.55;;;21.00;59.20;;;;;;5014982;28;20038;-70
2022/06/19 03:32:46;;;;;;;6.30;0.95;;;20.90;58.10;;;;;;5014721;28;20018;-71
2022/06/19 03:35:13;;;;;;;5.50;0.85;;;20.80;57.90;;;;;;5014489;28;20092;-70
2022/06/19 03:37:39;;;;;;;9.35;1.40;;;20.70;57.70;;;;;;5014308;28;20018;-69
2022/06/19 03:40:06;;;;;;;7.57;1.45;;;20.80;57.50;;;;;;5014439;28;20022;-70
2022/06/19 03:42:32;;;;;;;11.25;1.35;;;20.60;57.50;;;;;;4996824;28;20030;-71
2022/06/19 03:44:57;;;;;;;6.50;1.40;;;20.60;57.20;;;;;;5014476;28;20037;-72
2022/06/19 03:47:25;;;;;;;6.03;1.25;;;20.60;57.60;;;;;;5014219;28;20097;-71
2022/06/19 03:49:52;;;;;;;8.40;1.65;;;20.50;58.10;;;;;;5014322;28;20079;-71
2022/06/19 03:52:17;;;;;;;8.25;1.23;;;20.50;58.40;;;;;;5013941;28;20101;-71
2022/06/19 03:54:43;;;;;;;11.63;1.23;;;20.50;59.10;;;;;;5014093;28;20109;-69
2022/06/19 03:57:11;;;;;;;6.78;1.65;;;20.40;59.40;;;;;;5014310;28;20379;-70
2022/06/19 03:59:37;;;;;;;5.82;1.17;;;20.30;59.70;;;;;;4996614;28;20029;-71
2022/06/19 04:02:03;;;;;;;4.18;0.85;;;20.70;59.30;;;;;;5014224;28;20030;-72
2022/06/19 04:04:29;;;;;;;7.50;0.90;;;20.80;58.40;;;;;;5014115;28;20100;-72
2022/06/19 04:06:55;;;;;;;8.52;0.98;;;20.50;58.80;;;;;;5013639;28;20424;-71
2022/06/19 04:09:20;;;;;;;4.13;0.93;;;20.50;58.70;;;;;;5014161;28;20026;-71
2022/06/19 04:11:46;;;;;;;7.35;1.20;;;20.70;58.60;;;;;;5013636;28;20030;-71
2022/06/19 04:14:12;;;;;;;7.85;1.00;;;20.70;58.20;;;;;;5013990;28;20034;-72
2022/06/19 04:16:39;;;;;;;9.73;1.10;;;20.80;58.30;;;;;;5013659;28;20494;-71
2022/06/19 04:19:06;;;;;;;7.95;1.10;;;20.90;58.10;;;;;;5014039;28;20017;-69
2022/06/19 04:21:38;;;;;;;6.18;1.17;;;20.80;58.30;;;;;;5013518;28;20026;-71
2022/06/19 04:24:05;;;;;;;6.47;1.33;;;21.00;58.00;;;;;;4996234;28;20475;-69
2022/06/19 04:26:34;;;;;;;4.65;0.95;;;20.90;58.70;;;;;;5013589;28;20021;-72
2022/06/19 04:29:00;;;;;;;6.30;1.05;;;21.10;57.80;;;;;;5013733;28;20037;-71
2022/06/19 04:31:26;;;;;;;4.70;1.15;;;21.20;57.60;;;;;;5029740;28;20029;-65
2022/06/19 04:33:52;;;;;;;6.35;0.70;;;21.30;57.70;;;;;;5033393;28;20104;-71
2022/06/19 04:36:19;;;;;;;6.55;1.40;;;21.40;58.10;;;;;;5032568;28;20108;-71
2022/06/19 04:38:50;;;;;;;6.93;0.98;;;21.70;58.00;;;;;;5033392;28;20041;-70
2022/06/19 04:41:24;;;;;;;7.18;0.88;;;21.70;58.00;;;;;;5009458;28;20038;-66
2022/06/19 04:43:50;;;;;;;6.47;1.17;;;21.90;57.90;;;;;;5022998;28;20100;-66
2022/06/19 04:46:16;;;;;;;3.90;1.00;;;21.80;57.60;;;;;;5021103;28;20105;-66
2022/06/19 04:48:41;;;;;;;3.47;0.70;;;21.60;57.80;;;;;;5024647;28;20109;-66
2022/06/19 04:51:08;;;;;;;6.72;1.42;;;21.30;58.70;;;;;;4996953;28;20022;-70
2022/06/19 04:53:35;;;;;;;8.68;1.17;;;21.20;59.40;;;;;;5032224;28;20633;-72
2022/06/19 04:56:01;;;;;;;5.13;1.02;;;21.20;59.50;;;;;;5032128;28;20098;-68
2022/06/19 04:58:27;;;;;;;6.80;1.35;;;21.30;60.50;;;;;;4994899;28;20072;-68
2022/06/19 05:00:53;;;;;;;6.72;1.38;;;21.40;60.10;;;;;;5024752;28;20034;-70
2022/06/19 05:03:21;;;;;;;4.65;0.90;;;21.60;60.30;;;;;;5028560;28;20041;-72
2022/06/19 05:05:47;;;;;;;7.32;1.15;;;21.60;60.10;;;;;;5020554;28;20021;-71
2022/06/19 05:08:13;;;;;;;5.80;1.25;;;21.40;60.50;;;;;;5030858;28;20163;-68
2022/06/19 05:10:41;;;;;;;7.63;1.20;;;21.40;60.90;;;;;;5028988;28;20122;-70
2022/06/19 05:13:13;;;;;;;8.55;1.58;;;21.70;62.30;;;;;;5031583;28;20052;-68
2022/06/19 05:15:39;;;;;;;8.93;1.67;;;21.90;62.40;;;;;;5024771;28;20038;-72
2022/06/19 05:18:05;;;;;;;6.28;1.45;;;21.80;61.40;;;;;;5019583;28;20021;-70
2022/06/19 05:20:30;;;;;;;4.93;1.40;;;21.80;61.10;;;;;;5029679;28;20030;-69
2022/06/19 05:22:56;;;;;;;8.63;1.40;;;21.90;61.50;;;;;;5031806;28;20076;-68
2022/06/19 05:25:22;;;;;;;5.78;1.15;;;22.00;62.10;;;;;;5029042;28;20022;-71
2022/06/19 05:27:48;;;;;;;7.05;1.27;;;22.00;62.70;;;;;;5003914;28;20017;-69
2022/06/19 05:30:14;;;;;;;8.93;1.17;;;22.00;64.00;;;;;;5032439;28;20021;-71
2022/06/19 05:32:39;;;;;;;6.85;1.40;;;22.10;64.60;;;;;;5032136;28;20474;-71
2022/06/19 05:35:06;;;;;;;7.15;1.67;;;22.10;65.10;;;;;;5029669;28;20045;-70
2022/06/19 05:37:31;;;;;;;9.38;2.00;;;22.10;64.40;;;;;;5031004;28;20049;-71
2022/06/19 05:39:58;;;;;;;4.43;1.10;;;22.10;64.50;;;;;;5013889;28;20495;-70
2022/06/19 05:42:23;;;;;;;10.25;1.60;;;22.10;64.80;;;;;;5031545;28;20471;-71
2022/06/19 05:44:49;;;;;;;8.75;1.40;;;22.10;65.30;;;;;;5032000;28;20036;-71
2022/06/19 05:47:15;;;;;;;5.20;1.17;;;22.10;65.90;;;;;;5031907;28;20021;-70
2022/06/19 05:49:41;;;;;;;9.57;1.77;;;22.10;66.10;;;;;;5024794;28;20030;-71
2022/06/19 05:52:19;;;;;;;14.80;1.95;;;22.20;67.70;;;;;;5030800;28;20029;-71
2022/06/19 05:54:46;;;;;;;9.10;1.85;;;22.20;69.70;;;;;;5022874;28;20065;-68
2022/06/19 05:57:11;;;;;;;9.63;1.88;;;22.20;70.90;;;;;;5029247;28;20057;-69
2022/06/19 05:59:37;;;;;;;9.73;1.40;;;22.20;71.90;;;;;;5031535;28;20061;-68
2022/06/19 06:02:03;;;;;;;11.48;2.53;;;22.20;73.20;;;;;;5021955;28;20029;-69
2022/06/19 06:04:28;;;;;;;9.68;2.10;;;22.20;74.20;;;;;;5027712;28;20519;-63
2022/06/19 06:06:54;;;;;;;10.07;2.15;;;22.20;75.30;;;;;;5031682;28;20037;-63
2022/06/19 06:09:20;;;;;;;12.07;1.98;;;22.20;75.90;;;;;;5029108;28;20083;-64
2022/06/19 06:11:45;;;;;;;9.38;1.88;;;22.10;76.40;;;;;;5027144;28;20057;-64
2022/06/19 06:14:11;;;;;;;8.70;1.55;;;22.10;76.70;;;;;;5027358;28;20030;-64
2022/06/19 06:16:37;;;;;;;8.90;1.90;;;22.00;76.50;;;;;;5033840;28;20029;-65
2022/06/19 06:19:02;;;;;;;11.13;1.90;;;22.10;76.40;;;;;;5035267;28;20021;-63
2022/06/19 06:21:28;;;;;;;8.77;1.95;;;22.10;76.90;;;;;;5033710;28;20028;-63
2022/06/19 06:23:54;;;;;;;9.13;1.67;;;21.90;77.30;;;;;;5033473;28;20123;-67
2022/06/19 06:26:27;;;;;;;7.72;1.65;;;21.90;77.80;;;;;;5035045;28;20104;-63
2022/06/19 06:28:54;;;;;;;10.38;2.17;;;21.90;78.60;;;;;;5028885;28;20032;-64
2022/06/19 06:31:20;;;;;;;9.65;1.98;;;21.90;78.70;;;;;;5034816;28;20022;-65
2022/06/19 06:33:46;;;;;;;10.00;2.13;;;21.70;79.30;;;;;;5034867;28;20048;-66
2022/06/19 06:36:13;;;;;;;12.35;2.00;;;21.60;78.40;;;;;;5023733;28;20498;-64
2022/06/19 06:38:39;;;;;;;10.25;2.10;;;21.70;78.70;;;;;;5028826;28;20426;-64
2022/06/19 06:41:07;;;;;;;7.82;1.90;;;21.30;80.20;;;;;;5024136;28;20083;-65
2022/06/19 06:43:35;;;;;;;12.70;2.70;;;21.30;80.80;;;;;;5024349;28;20475;-66
2022/06/19 06:46:10;;;;;;;19.17;2.47;;;21.30;80.80;;;;;;5021052;28;20030;-65
2022/06/19 06:48:35;;;;;;;10.00;2.50;;;21.40;81.50;;;;;;5018962;28;20017;-65
2022/06/19 06:51:12;;;;;;;10.77;1.90;;;21.30;81.70;;;;;;5029959;28;20049;-66
2022/06/19 06:53:38;;;;;;;8.43;1.85;;;21.20;82.50;;;;;;5017097;28;20029;-65
2022/06/19 06:56:04;;;;;;;9.07;2.35;;;21.20;82.60;;;;;;5033849;28;20033;-65
2022/06/19 06:58:29;;;;;;;11.15;2.40;;;21.20;82.50;;;;;;5032987;28;20021;-68
2022/06/19 07:00:55;;;;;;;10.52;2.10;;;21.00;82.70;;;;;;5021045;28;20038;-69
2022/06/19 07:03:21;;;;;;;8.05;1.70;;;21.10;82.50;;;;;;5031110;28;20049;-69
2022/06/19 07:05:47;;;;;;;12.38;2.33;;;21.40;82.20;;;;;;5021882;28;20057;-69
2022/06/19 07:08:13;;;;;;;10.50;2.38;;;21.50;81.60;;;;;;5027700;28;20115;-68
2022/06/19 07:10:38;;;;;;;9.60;2.03;;;21.70;81.50;;;;;;5015032;28;20733;-69
2022/06/19 07:13:05;;;;;;;9.70;1.88;;;21.80;80.80;;;;;;5033043;28;20100;-67
2022/06/19 07:15:32;;;;;;;11.65;2.20;;;21.60;81.20;;;;;;5032937;28;20172;-70
2022/06/19 07:17:58;;;;;;;10.68;2.25;;;21.70;80.60;;;;;;5034211;28;20029;-69
2022/06/19 07:20:24;;;;;;;9.77;2.17;;;21.80;80.10;;;;;;5032245;28;20022;-67
2022/06/19 07:22:50;;;;;;;9.80;2.00;;;21.30;80.50;;;;;;5033826;28;20037;-69
2022/06/19 07:25:17;;;;;;;8.73;2.00;;;21.10;81.50;;;;;;5032610;28;20053;-64
2022/06/19 07:27:43;;;;;;;8.35;1.77;;;21.10;82.80;;;;;;5025736;28;20022;-65
2022/06/19 07:30:14;;;;;;;8.70;1.85;;;20.90;84.20;;;;;;5024045;28;20048;-64
2022/06/19 07:32:39;;;;;;;9.43;2.13;;;21.00;83.10;;;;;;5033932;28;20017;-65
2022/06/19 07:35:05;;;;;;;13.43;2.30;;;21.30;82.60;;;;;;5033710;28;20505;-64
2022/06/19 07:37:31;;;;;;;6.85;1.60;;;21.30;83.60;;;;;;5020171;28;20538;-72
2022/06/19 07:39:56;;;;;;;9.45;2.20;;;21.10;84.10;;;;;;5027329;28;20039;-69
2022/06/19 07:42:22;;;;;;;8.90;2.05;;;21.10;83.40;;;;;;5033709;28;20017;-69
2022/06/19 07:44:47;;;;;;;12.30;2.33;;;21.10;83.10;;;;;;5031821;28;20371;-68
2022/06/19 07:50:09;;;;;;;10.80;2.42;;;21.20;82.70;;;;;;5033308;28;20044;-68
2022/06/19 07:52:40;;;;;;;8.95;2.05;;;21.20;82.70;;;;;;5029051;28;20144;-68
2022/06/19 07:55:07;;;;;;;8.80;2.10;;;20.90;83.20;;;;;;5032507;28;20036;-69
2022/06/19 07:57:33;;;;;;;7.63;1.83;;;20.80;83.50;;;;;;5033820;28;20101;-71
2022/06/19 08:00:00;;;;;;;8.30;1.80;;;20.80;83.80;;;;;;5032405;28;20112;-71
2022/06/19 08:02:25;;;;;;;9.20;2.33;;;21.10;83.40;;;;;;5027566;28;20030;-71
2022/06/19 08:04:52;;;;;;;15.93;2.15;;;21.00;83.40;;;;;;5030965;28;20021;-69
2022/06/19 08:07:18;;;;;;;11.07;2.17;;;21.10;84.10;;;;;;5033180;28;20028;-69
2022/06/19 08:09:44;;;;;;;13.50;1.70;;;21.20;83.90;;;;;;5016006;28;20573;-70
2022/06/19 08:12:10;;;;;;;8.68;2.20;;;21.30;83.80;;;;;;5033447;28;20033;-69
2022/06/19 08:14:37;;;;;;;10.20;1.75;;;21.40;83.40;;;;;;5023063;28;20068;-69
2022/06/19 08:17:03;;;;;;;13.07;2.53;;;21.20;83.70;;;;;;5030704;28;20112;-70
2022/06/19 08:19:29;;;;;;;13.73;2.80;;;21.20;83.80;;;;;;5028088;28;21399;-72
2022/06/19 08:21:54;;;;;;;8.57;2.05;;;21.30;83.90;;;;;;5027125;28;20388;-74
2022/06/19 08:24:21;;;;;;;8.27;2.17;;;21.40;84.20;;;;;;5029347;28;20475;-73
2022/06/19 08:26:48;;;;;;;11.20;2.58;;;21.50;83.70;;;;;;5032209;28;20057;-81
2022/06/19 08:29:14;;;;;;;8.38;2.13;;;21.70;83.80;;;;;;5031738;28;20022;-77
2022/06/19 08:31:39;;;;;;;10.88;2.10;;;21.70;82.20;;;;;;5030739;28;20395;-77
2022/06/19 08:34:05;;;;;;;8.35;1.98;;;21.60;82.50;;;;;;5013966;28;20018;-79
2022/06/19 08:36:33;;;;;;;8.27;2.20;;;21.70;82.70;;;;;;5031381;28;20065;-83
2022/06/19 08:39:02;;;;;;;9.35;2.40;;;21.80;82.50;;;;;;5028772;28;20494;-77
2022/06/19 08:41:54;;;;;;;9.15;2.30;;;21.90;82.10;;;;;;5025204;28;20079;-65
2022/06/19 08:44:41;;;;;;;9.63;2.17;;;21.80;80.80;;;;;;5030730;28;20022;-65
2022/06/19 08:47:27;;;;;;;10.15;2.17;;;21.40;80.90;;;;;;5028564;28;20030;-66
2022/06/19 08:50:04;;;;;;;9.63;2.40;;;21.40;82.00;;;;;;5028062;28;20037;-65
2022/06/19 08:52:48;;;;;;;9.23;1.77;;;21.30;81.80;;;;;;5029125;28;20018;-65
2022/06/19 08:55:41;;;;;;;8.05;1.83;;;21.20;81.90;;;;;;5028048;28;20460;-68
2022/06/19 08:58:16;;;;;;;;;;;20.90;83.30;;;;;;5030362;28;20021;-65
2022/06/19 09:00:55;;;;;;;9.25;1.73;;;20.90;81.90;;;;;;5031240;28;19912;-65
2022/06/19 09:05:36;;;;;;;11.23;2.55;;;20.90;83.10;;;;;;5029529;28;20223;-65
2022/06/19 09:06:29;;;;;;;11.23;2.53;;;21.00;82.50;;;;;;5022886;28;20402;-65
2022/06/19 09:09:28;;;;;;;9.65;2.00;;;21.20;82.40;;;;;;5031545;28;20025;-65
2022/06/19 09:12:12;;;;;;;8.80;2.47;;;21.30;82.00;;;;;;5026072;28;20026;-68
2022/06/19 09:14:43;;;;;;;10.55;2.25;;;21.30;82.00;;;;;;5029443;28;20537;-68
2022/06/19 09:17:45;;;;;;;8.43;1.92;;;21.10;82.00;;;;;;5031135;28;20018;-67
2022/06/19 09:20:17;;;;;;;8.40;2.03;;;21.00;81.50;;;;;;5018478;28;20030;-68
2022/06/19 09:23:03;;;;;;;9.05;2.08;;;20.90;81.70;;;;;;5031367;28;20463;-69
2022/06/19 09:25:54;;;;;;;7.15;1.90;;;21.00;81.80;;;;;;5031034;28;20026;-64
2022/06/19 09:28:33;;;;;;;6.70;2.03;;;20.90;81.80;;;;;;5020991;28;20029;-66
2022/06/19 09:30:59;;;;;;;7.63;2.22;;;21.20;82.30;;;;;;5030055;28;20556;-67
2022/06/19 09:33:51;;;;;;;12.70;2.58;;;21.30;81.60;;;;;;5028643;28;20068;-64
2022/06/19 09:36:24;;;;;;;7.05;2.35;;;21.20;81.70;;;;;;5010953;28;20124;-67
2022/06/19 09:39:17;;;;;;;6.78;2.20;;;21.10;81.80;;;;;;5024258;28;20017;-66
2022/06/19 09:41:51;;;;;;;9.73;2.30;;;21.10;82.20;;;;;;5024426;28;20140;-65
2022/06/19 09:44:51;;;;;;;9.05;2.40;;;21.20;82.40;;;;;;5029148;28;20044;-67
2022/06/19 09:47:41;;;;;;;11.18;2.33;;;21.30;81.90;;;;;;5009655;28;20065;-67
2022/06/19 09:50:21;;;;;;;9.82;2.20;;;21.30;82.20;;;;;;5017700;28;20551;-66
2022/06/19 09:53:12;;;;;;;9.95;2.13;;;21.20;82.40;;;;;;5032779;28;20088;-65
2022/06/19 09:55:46;;;;;;;9.70;2.47;;;21.30;81.90;;;;;;5019007;28;20105;-67
2022/06/19 09:58:15;;;;;;;8.30;2.45;;;21.20;82.50;;;;;;5028156;28;20022;-68
2022/06/19 10:00:44;;;;;;;10.40;2.90;;;21.30;82.70;;;;;;5028261;28;20021;-67
2022/06/19 10:03:28;;;;;;;8.57;2.53;;;21.40;82.30;;;;;;5034123;28;20028;-66
2022/06/19 10:05:59;;;;;;;9.10;2.55;;;21.50;82.40;;;;;;5032628;28;20628;-67
2022/06/19 10:08:45;;;;;;;7.53;2.58;;;21.60;81.40;;;;;;5033722;28;20025;-68
2022/06/19 10:11:27;;;;;;;7.72;2.38;;;21.70;81.50;;;;;;5028333;28;20030;-67
2022/06/19 10:14:13;;;;;;;7.57;2.45;;;21.70;81.80;;;;;;5032371;28;20034;-68
2022/06/19 10:16:54;;;;;;;6.53;2.00;;;21.60;81.50;;;;;;5016723;28;20056;-69
2022/06/19 10:19:26;;;;;;;6.32;1.55;;;21.80;81.50;;;;;;5021220;28;20080;-69
2022/06/19 10:22:14;;;;;;;3.88;1.27;;;21.80;80.70;;;;;;5033187;28;20033;-68
2022/06/19 10:25:19;;;;;;;6.97;1.75;;;21.80;79.90;;;;;;5030467;28;20099;-68
2022/06/19 10:28:00;;;;;;;7.35;2.15;;;21.90;79.90;;;;;;5030124;28;20406;-69
2022/06/19 10:30:36;;;;;;;7.97;2.10;;;21.80;81.10;;;;;;5029723;28;20021;-68
2022/06/19 10:33:26;;;;;;;8.15;2.33;;;22.00;82.10;;;;;;5032385;28;20478;-68
2022/06/19 10:36:06;;;;;;;6.32;2.25;;;21.70;80.70;;;;;;5029006;28;20052;-68
2022/06/19 10:38:57;;;;;;;7.07;2.30;;;21.90;83.20;;;;;;5030676;28;20336;-68
2022/06/19 10:44:48;;;;;;;6.03;1.95;;;21.80;81.10;;;;;;5024536;28;20153;-66
2022/06/19 10:47:19;;;;;;;5.70;1.70;;;22.00;81.10;;;;;;5030704;28;20485;-68
2022/06/19 10:50:23;;;;;;;6.28;1.55;;;22.10;81.00;;;;;;5031890;28;20516;-66
2022/06/19 10:52:54;;;;;;;4.93;1.98;;;22.00;81.40;;;;;;5022983;28;20025;-68
2022/06/19 10:55:32;;;;;;;7.10;2.20;;;22.10;81.20;;;;;;5030423;28;20418;-68
2022/06/19 10:58:34;;;;;;;4.30;2.00;;;22.20;81.70;;;;;;5031142;28;20030;-67
2022/06/19 11:01:06;;;;;;;5.68;1.90;;;22.20;81.70;;;;;;4951986;29;20027;-67
2022/06/19 11:06:27;;;;;;;5.03;1.70;;;22.30;80.60;;;;;;5028466;28;19920;-68
2022/06/19 11:09:03;;;;;;;4.35;1.92;;;22.20;80.40;;;;;;5027713;28;20061;-66
2022/06/19 11:11:31;;;;;;;4.05;1.92;;;22.20;80.90;;;;;;4995646;28;20987;-67
2022/06/19 11:13:58;;;;;;;6.75;1.98;;;22.30;80.90;;;;;;5022874;28;20041;-69
2022/06/19 11:16:25;;;;;;;5.63;1.63;;;22.40;81.20;;;;;;5028174;28;20487;-68
2022/06/19 11:18:53;;;;;;;4.22;1.60;;;22.30;80.30;;;;;;5024999;28;20053;-68
2022/06/19 11:21:23;;;;;;;5.03;1.58;;;22.20;80.50;;;;;;5031166;28;20159;-68
2022/06/19 11:23:49;;;;;;;6.35;2.10;;;22.20;81.00;;;;;;5029228;28;20037;-68
2022/06/19 11:26:21;;;;;;;6.82;1.90;;;22.30;80.60;;;;;;5025333;28;20022;-67
2022/06/19 11:29:00;;;;;;;6.97;2.15;;;22.30;80.10;;;;;;5023194;28;20161;-68
2022/06/19 11:31:32;;;;;;;7.03;2.17;;;22.20;80.60;;;;;;5022028;28;20163;-67
2022/06/19 11:34:43;;;;;;;4.10;1.80;;;22.30;80.30;;;;;;5027761;28;20048;-68
2022/06/19 11:37:12;;;;;;;4.95;1.83;;;22.40;80.60;;;;;;5031376;28;20098;-68
2022/06/19 11:39:42;;;;;;;4.90;2.05;;;22.30;80.30;;;;;;5020572;28;20025;-69
2022/06/19 11:42:23;;;;;;;6.90;1.88;;;22.40;80.60;;;;;;5024682;28;20040;-68
2022/06/19 11:45:13;;;;;;;8.55;2.30;;;22.50;82.00;;;;;;5031353;28;20041;-68
2022/06/19 11:47:47;;;;;;;8.90;2.78;;;22.60;82.10;;;;;;5010708;28;20041;-67
2022/06/19 11:50:20;;;;;;;9.55;3.20;;;22.60;80.10;;;;;;5020035;28;20029;-69
2022/06/19 11:52:56;;;;;;;6.07;2.60;;;22.40;79.30;;;;;;5026689;28;20075;-68
2022/06/19 11:55:27;;;;;;;7.30;2.70;;;22.50;80.00;;;;;;5023310;28;20045;-68
2022/06/19 11:57:59;;;;;;;6.78;2.55;;;22.50;79.60;;;;;;5030019;28;20536;-69
2022/06/19 12:00:33;;;;;;;7.05;2.45;;;22.40;79.20;;;;;;5027010;28;20109;-67
2022/06/19 12:03:06;;;;;;;7.22;2.63;;;22.40;79.10;;;;;;4999466;28;20029;-69
2022/06/19 12:05:33;;;;;;;;;;;22.40;78.90;;;;;;5020567;28;20029;-68
2022/06/19 12:08:23;;;;;;;8.93;2.58;;;22.40;78.80;;;;;;5034249;28;19916;-69
2022/06/19 12:11:04;;;;;;;8.95;2.92;;;22.40;79.70;;;;;;5030720;28;20367;-69
2022/06/19 12:13:38;;;;;;;6.30;2.75;;;22.50;79.40;;;;;;5028661;28;20125;-68
2022/06/19 12:16:16;;;;;;;7.47;2.70;;;22.40;79.20;;;;;;5029324;28;20340;-68
2022/06/19 12:18:41;;;;;;;8.13;3.38;;;22.20;79.40;;;;;;5021248;28;20558;-69
2022/06/19 12:21:23;;;;;;;6.78;4.07;;;22.10;79.50;;;;;;5028966;28;20068;-68
2022/06/19 12:24:09;;;;;;;8.32;3.58;;;22.10;79.80;;;;;;5030129;28;20045;-69
2022/06/19 12:26:43;;;;;;;12.38;3.30;;;22.00;80.00;;;;;;5010567;28;20017;-69
2022/06/19 12:29:36;;;;;;;9.57;3.80;;;22.20;80.40;;;;;;5026222;28;20379;-68
2022/06/19 12:32:09;;;;;;;9.57;4.45;;;22.20;80.70;;;;;;5032462;28;20022;-68
2022/06/19 12:34:42;;;;;;;7.30;4.20;;;22.10;80.90;;;;;;5027377;28;20352;-69
2022/06/19 12:37:18;;;;;;;10.38;4.70;;;22.20;81.30;;;;;;5031571;28;20077;-68
2022/06/19 12:39:44;;;;;;;11.55;5.85;;;22.30;81.70;;;;;;5024298;28;20030;-69
2022/06/19 12:42:48;;;;;;;13.75;7.70;;;22.30;82.40;;;;;;5012877;28;20093;-68
2022/06/19 12:45:37;;;;;;;13.85;7.18;;;22.10;82.10;;;;;;4986663;28;20049;-68
2022/06/19 12:48:21;;;;;;;12.05;6.88;;;22.20;82.20;;;;;;5024557;28;20048;-68
2022/06/19 12:51:20;;;;;;;10.85;6.95;;;22.30;82.30;;;;;;5028804;28;20119;-68
2022/06/19 12:53:57;;;;;;;9.30;5.35;;;22.40;81.80;;;;;;5015424;28;20073;-68
2022/06/19 12:57:00;;;;;;;12.52;6.43;;;22.40;81.60;;;;;;5026726;28;20076;-68
2022/06/19 12:59:55;;;;;;;10.98;6.60;;;22.40;81.70;;;;;;5024087;28;20025;-68
2022/06/19 13:02:27;;;;;;;14.25;7.30;;;22.40;81.50;;;;;;5028407;28;20021;-68
2022/06/19 13:05:28;;;;;;;11.55;6.20;;;22.40;82.10;;;;;;5023985;28;20029;-68
2022/06/19 13:08:16;;;;;;;15.30;8.57;;;22.30;82.30;;;;;;5020349;28;20452;-67
2022/06/19 13:10:59;;;;;;;14.13;7.72;;;22.20;82.50;;;;;;5020709;28;20029;-67
2022/06/19 13:14:03;;;;;;;11.50;7.88;;;21.90;83.40;;;;;;5008972;28;20033;-68
2022/06/19 13:17:03;;;;;;;13.13;8.48;;;21.90;84.00;;;;;;5009510;28;20506;-67
2022/06/19 13:19:41;;;;;;;12.15;8.15;;;21.90;86.00;;;;;;5030857;28;20595;-67
2022/06/19 13:22:22;;;;;;;13.25;9.48;;;21.80;86.30;;;;;;5033114;28;20029;-66